Time,TemperatureF,DewpointF,PressureIn,WindDirection,WindDirectionDegrees,WindSpeedMPH,WindSpeedGustMPH,Humidity,HourlyPrecipIn,Conditions,Clouds,dailyrainin,SoftwareType,DateUTC
2013-09-20 00:13:00,83.7,39.0,29.63,WNW,284,1.0,3.0,20,0.00,,,0.00,weatherlink.com 1.10,2013-09-20 07:13:00,
2013-09-20 00:28:00,82.3,39.0,29.63,North,354,0.0,1.0,21,0.00,,,0.00,weatherlink.com 1.10,2013-09-20 07:28:00,
2013-09-20 00:43:00,82.4,37.0,29.63,WNW,296,0.0,3.0,20,0.00,,,0.00,weatherlink.com 1.10,2013-09-20 07:43:00,
2013-09-20 00:58:00,82.6,36.0,29.63,West,269,0.0,2.0,19,0.00,,,0.00,weatherlink.com 1.10,2013-09-20 07:58:00,
2013-09-20 01:13:00,82.8,36.0,29.63,WNW,297,1.0,3.0,19,0.00,,,0.00,weatherlink.com 1.10,2013-09-20 08:13:00,
2013-09-20 01:28:00,82.6,36.0,29.63,SE,138,0.0,2.0,19,0.00,,,0.00,weatherlink.com 1.10,2013-09-20 08:28:00,
2013-09-20 01:43:00,80.1,39.0,29.63,East,85,0.0,0.0,23,0.00,,,0.00,weatherlink.com 1.10,2013-09-20 08:43:00,
2013-09-20 01:58:00,78.0,39.0,29.63,East,85,0.0,0.0,25,0.00,,,0.00,weatherlink.com 1.10,2013-09-20 08:58:00,
2013-09-20 02:13:00,78.0,39.0,29.63,West,260,1.0,1.0,25,0.00,,,0.00,weatherlink.com 1.10,2013-09-20 09:13:00,
2013-09-20 02:28:00,78.3,39.0,29.63,West,260,0.0,1.0,24,0.00,,,0.00,weatherlink.com 1.10,2013-09-20 09:28:00,
2013-09-20 02:43:00,78.1,38.0,29.63,West,263,0.0,1.0,24,0.00,,,0.00,weatherlink.com 1.10,2013-09-20 09:43:00,
2013-09-20 02:58:00,77.9,38.0,29.63,West,262,0.0,0.0,24,0.00,,,0.00,weatherlink.com 1.10,2013-09-20 09:58:00,
2013-09-20 03:13:00,76.9,38.0,29.63,West,262,0.0,0.0,25,0.00,,,0.00,weatherlink.com 1.10,2013-09-20 10:13:00,
2013-09-20 03:28:00,77.1,42.0,29.63,West,262,0.0,0.0,28,0.00,,,0.00,weatherlink.com 1.10,2013-09-20 10:28:00,
2013-09-20 03:43:00,77.5,39.0,29.63,West,269,0.0,0.0,25,0.00,,,0.00,weatherlink.com 1.10,2013-09-20 10:43:00,
2013-09-20 03:58:00,76.2,39.0,29.63,West,269,0.0,0.0,26,0.00,,,0.00,weatherlink.com 1.10,2013-09-20 10:58:00,
2013-09-20 04:14:00,76.5,39.0,29.63,West,277,0.0,1.0,26,0.00,,,0.00,weatherlink.com 1.10,2013-09-20 11:14:00,
2013-09-20 04:29:00,75.7,40.0,29.63,West,277,0.0,0.0,28,0.00,,,0.00,weatherlink.com 1.10,2013-09-20 11:29:00,
2013-09-20 04:44:00,76.2,39.0,29.63,West,277,0.0,0.0,26,0.00,,,0.00,weatherlink.com 1.10,2013-09-20 11:44:00,
2013-09-20 04:59:00,76.3,39.0,29.64,West,276,0.0,0.0,26,0.00,,,0.00,weatherlink.com 1.10,2013-09-20 11:59:00,
2013-09-20 05:14:00,75.6,39.0,29.64,West,276,0.0,0.0,27,0.00,,,0.00,weatherlink.com 1.10,2013-09-20 12:14:00,
2013-09-20 05:29:00,76.0,40.0,29.64,West,276,0.0,0.0,27,0.00,,,0.00,weatherlink.com 1.10,2013-09-20 12:29:00,
2013-09-20 05:44:00,74.2,40.0,29.65,WSW,246,0.0,1.0,29,0.00,,,0.00,weatherlink.com 1.10,2013-09-20 12:44:00,
2013-09-20 05:59:00,75.4,38.0,29.65,WSW,249,2.0,4.0,26,0.00,,,0.00,weatherlink.com 1.10,2013-09-20 12:59:00,
2013-09-20 06:14:00,75.4,37.0,29.65,WSW,248,2.0,2.0,25,0.00,,,0.00,weatherlink.com 1.10,2013-09-20 13:14:00,
2013-09-20 06:29:00,76.6,37.0,29.66,SW,236,1.0,2.0,24,0.00,,,0.00,weatherlink.com 1.10,2013-09-20 13:29:00,
2013-09-20 06:44:00,77.2,41.0,29.66,WSW,239,0.0,1.0,27,0.00,,,0.00,weatherlink.com 1.10,2013-09-20 13:44:00,
2013-09-20 06:59:00,78.7,39.0,29.66,East,94,0.0,1.0,24,0.00,,,0.00,weatherlink.com 1.10,2013-09-20 13:59:00,
2013-09-20 07:14:00,79.7,40.0,29.67,ESE,107,0.0,0.0,24,0.00,,,0.00,weatherlink.com 1.10,2013-09-20 14:14:00,
2013-09-20 07:29:00,82.1,41.0,29.67,ESE,102,0.0,1.0,23,0.00,,,0.00,weatherlink.com 1.10,2013-09-20 14:29:00,
2013-09-20 07:44:00,82.6,38.0,29.68,ESE,121,3.0,5.0,20,0.00,,,0.00,weatherlink.com 1.10,2013-09-20 14:44:00,
2013-09-20 07:59:00,83.8,37.0,29.68,ESE,111,6.0,6.0,19,0.00,,,0.00,weatherlink.com 1.10,2013-09-20 14:59:00,
2013-09-20 08:14:00,83.7,39.0,29.68,ESE,111,3.0,7.0,20,0.00,,,0.00,weatherlink.com 1.10,2013-09-20 15:14:00,
2013-09-20 08:29:00,84.4,38.0,29.68,ESE,117,0.0,5.0,19,0.00,,,0.00,weatherlink.com 1.10,2013-09-20 15:29:00,
2013-09-20 08:44:00,85.9,39.0,29.69,SE,134,4.0,4.0,19,0.00,,,0.00,weatherlink.com 1.10,2013-09-20 15:44:00,
2013-09-20 08:59:00,86.8,45.0,29.69,SE,143,3.0,5.0,23,0.00,,,0.00,weatherlink.com 1.10,2013-09-20 15:59:00,
2013-09-20 09:14:00,86.9,48.0,29.69,South,179,5.0,7.0,26,0.00,,,0.00,weatherlink.com 1.10,2013-09-20 16:14:00,
2013-09-20 09:29:00,86.5,48.0,29.69,ESE,121,5.0,9.0,26,0.00,,,0.00,weatherlink.com 1.10,2013-09-20 16:29:00,
2013-09-20 09:44:00,87.4,49.0,29.70,ESE,120,5.0,8.0,26,0.00,,,0.00,weatherlink.com 1.10,2013-09-20 16:44:00,
2013-09-20 09:59:00,88.6,50.0,29.69,ESE,114,4.0,9.0,26,0.00,,,0.00,weatherlink.com 1.10,2013-09-20 16:59:00,
2013-09-20 10:14:00,89.2,50.0,29.69,SE,128,6.0,12.0,26,0.00,,,0.00,weatherlink.com 1.10,2013-09-20 17:14:00,
2013-09-20 10:29:00,89.4,50.0,29.69,SE,129,6.0,10.0,26,0.00,,,0.00,weatherlink.com 1.10,2013-09-20 17:29:00,
2013-09-20 10:44:00,90.1,49.0,29.68,East,84,5.0,9.0,24,0.00,,,0.00,weatherlink.com 1.10,2013-09-20 17:44:00,
2013-09-20 10:59:00,90.8,48.0,29.68,East,96,6.0,9.0,23,0.00,,,0.00,weatherlink.com 1.10,2013-09-20 17:59:00,
2013-09-20 11:14:00,92.5,48.0,29.67,ESE,116,3.0,9.0,22,0.00,,,0.00,weatherlink.com 1.10,2013-09-20 18:14:00,
2013-09-20 11:29:00,93.8,48.0,29.66,ESE,117,7.0,7.0,21,0.00,,,0.00,weatherlink.com 1.10,2013-09-20 18:29:00,
2013-09-20 11:44:00,95.2,48.0,29.66,West,274,1.0,4.0,20,0.00,,,0.00,weatherlink.com 1.10,2013-09-20 18:44:00,
2013-09-20 11:59:00,94.6,49.0,29.66,SE,137,4.0,8.0,21,0.00,,,0.00,weatherlink.com 1.10,2013-09-20 18:59:00,
2013-09-20 12:15:00,96.1,50.0,29.65,West,280,2.0,13.0,21,0.00,,,0.00,weatherlink.com 1.10,2013-09-20 19:15:00,
2013-09-20 12:30:00,96.0,49.0,29.64,West,263,2.0,7.0,20,0.00,,,0.00,weatherlink.com 1.10,2013-09-20 19:30:00,
2013-09-20 12:45:00,95.7,49.0,29.64,West,260,5.0,11.0,20,0.00,,,0.00,weatherlink.com 1.10,2013-09-20 19:45:00,
2013-09-20 13:00:00,95.8,50.0,29.63,NW,309,1.0,9.0,21,0.00,,,0.00,weatherlink.com 1.10,2013-09-20 20:00:00,
2013-09-20 13:15:00,97.3,47.0,29.63,West,276,4.0,7.0,18,0.00,,,0.00,weatherlink.com 1.10,2013-09-20 20:15:00,
2013-09-20 13:30:00,97.2,49.0,29.62,ESE,108,0.0,8.0,19,0.00,,,0.00,weatherlink.com 1.10,2013-09-20 20:30:00,
2013-09-20 13:45:00,98.4,48.0,29.62,SSW,207,5.0,8.0,18,0.00,,,0.00,weatherlink.com 1.10,2013-09-20 20:45:00,
2013-09-20 14:00:00,97.7,46.0,29.61,NW,316,0.0,6.0,17,0.00,,,0.00,weatherlink.com 1.10,2013-09-20 21:00:00,
2013-09-20 14:15:00,97.8,48.0,29.61,SW,223,7.0,9.0,18,0.00,,,0.00,weatherlink.com 1.10,2013-09-20 21:15:00,
2013-09-20 14:30:00,98.8,47.0,29.61,ESE,115,3.0,5.0,17,0.00,,,0.00,weatherlink.com 1.10,2013-09-20 21:30:00,
2013-09-20 14:45:00,97.5,46.0,29.61,West,266,3.0,16.0,17,0.00,,,0.00,weatherlink.com 1.10,2013-09-20 21:45:00,
2013-09-20 15:00:00,96.4,46.0,29.60,ENE,77,1.0,5.0,18,0.00,,,0.00,weatherlink.com 1.10,2013-09-20 22:00:00,
2013-09-20 15:15:00,96.6,47.0,29.59,SE,138,0.0,3.0,18,0.00,,,0.00,weatherlink.com 1.10,2013-09-20 22:15:00,
2013-09-20 15:30:00,97.1,46.0,29.59,South,169,4.0,5.0,17,0.00,,,0.00,weatherlink.com 1.10,2013-09-20 22:30:00,
2013-09-20 15:45:00,98.4,47.0,29.59,East,86,0.0,7.0,17,0.00,,,0.00,weatherlink.com 1.10,2013-09-20 22:45:00,
2013-09-20 16:00:00,100.2,45.0,29.59,WNW,297,2.0,17.0,15,0.00,,,0.00,weatherlink.com 1.10,2013-09-20 23:00:00,
2013-09-20 16:15:00,99.7,46.0,29.59,West,262,4.0,8.0,16,0.00,,,0.00,weatherlink.com 1.10,2013-09-20 23:15:00,
2013-09-20 16:30:00,98.7,44.0,29.59,WNW,290,2.0,9.0,15,0.00,,,0.00,weatherlink.com 1.10,2013-09-20 23:30:00,
2013-09-20 16:45:00,97.5,43.0,29.59,NW,318,6.0,7.0,15,0.00,,,0.00,weatherlink.com 1.10,2013-09-20 23:45:00,
2013-09-20 17:00:00,96.3,43.0,29.59,West,281,2.0,9.0,16,0.00,,,0.00,weatherlink.com 1.10,2013-09-21 00:00:00,
2013-09-20 17:15:00,96.3,43.0,29.59,NW,311,1.0,4.0,16,0.00,,,0.00,weatherlink.com 1.10,2013-09-21 00:15:00,
2013-09-20 17:30:00,96.5,45.0,29.60,WSW,247,5.0,8.0,17,0.00,,,0.00,weatherlink.com 1.10,2013-09-21 00:30:00,
2013-09-20 17:45:00,95.9,45.0,29.61,East,92,1.0,3.0,17,0.00,,,0.00,weatherlink.com 1.10,2013-09-21 00:45:00,
2013-09-20 18:00:00,92.7,53.0,29.61,SE,124,3.0,6.0,26,0.00,,,0.00,weatherlink.com 1.10,2013-09-21 01:00:00,
2013-09-20 18:15:00,91.2,55.0,29.61,East,87,5.0,11.0,29,0.00,,,0.00,weatherlink.com 1.10,2013-09-21 01:15:00,
2013-09-20 18:30:00,90.4,55.0,29.62,East,91,3.0,8.0,30,0.00,,,0.00,weatherlink.com 1.10,2013-09-21 01:30:00,
2013-09-20 18:45:00,88.3,54.0,29.63,SE,145,9.0,16.0,31,0.00,,,0.00,weatherlink.com 1.10,2013-09-21 01:45:00,
2013-09-20 19:00:00,87.7,54.0,29.63,ESE,103,7.0,10.0,31,0.00,,,0.00,weatherlink.com 1.10,2013-09-21 02:00:00,
2013-09-20 19:15:00,87.4,53.0,29.64,SSW,201,2.0,8.0,31,0.00,,,0.00,weatherlink.com 1.10,2013-09-21 02:15:00,
2013-09-20 19:30:00,86.9,53.0,29.65,South,175,3.0,7.0,31,0.00,,,0.00,weatherlink.com 1.10,2013-09-21 02:30:00,
2013-09-20 19:45:00,86.5,52.0,29.65,SE,125,5.0,6.0,31,0.00,,,0.00,weatherlink.com 1.10,2013-09-21 02:45:00,
2013-09-20 20:00:00,86.2,52.0,29.66,ESE,120,2.0,9.0,31,0.00,,,0.00,weatherlink.com 1.10,2013-09-21 03:00:00,
2013-09-20 20:15:00,85.1,53.0,29.67,East,86,3.0,3.0,33,0.00,,,0.00,weatherlink.com 1.10,2013-09-21 03:15:00,
2013-09-20 20:30:00,84.4,53.0,29.67,ESE,121,4.0,11.0,34,0.00,,,0.00,weatherlink.com 1.10,2013-09-21 03:30:00,
2013-09-20 20:45:00,83.6,54.0,29.67,South,185,5.0,11.0,36,0.00,,,0.00,weatherlink.com 1.10,2013-09-21 03:45:00,
2013-09-20 21:00:00,83.3,54.0,29.67,South,170,6.0,10.0,36,0.00,,,0.00,weatherlink.com 1.10,2013-09-21 04:00:00,
2013-09-20 21:15:00,83.7,55.0,29.67,South,175,6.0,9.0,38,0.00,,,0.00,weatherlink.com 1.10,2013-09-21 04:15:00,
2013-09-20 21:30:00,83.5,55.0,29.68,ESE,110,3.0,9.0,38,0.00,,,0.00,weatherlink.com 1.10,2013-09-21 04:30:00,
2013-09-20 21:45:00,83.7,55.0,29.68,SW,226,7.0,10.0,37,0.00,,,0.00,weatherlink.com 1.10,2013-09-21 04:45:00,
2013-09-20 22:00:00,83.5,55.0,29.69,ESE,108,6.0,10.0,38,0.00,,,0.00,weatherlink.com 1.10,2013-09-21 05:00:00,
2013-09-20 22:15:00,81.9,56.0,29.69,SSE,153,6.0,11.0,41,0.00,,,0.00,weatherlink.com 1.10,2013-09-21 05:15:00,
2013-09-20 22:30:00,81.3,56.0,29.70,SE,141,6.0,11.0,42,0.00,,,0.00,weatherlink.com 1.10,2013-09-21 05:30:00,
2013-09-20 22:45:00,81.0,56.0,29.70,SE,133,6.0,12.0,42,0.00,,,0.00,weatherlink.com 1.10,2013-09-21 05:45:00,
2013-09-20 23:00:00,80.1,56.0,29.70,ESE,119,10.0,13.0,43,0.00,,,0.00,weatherlink.com 1.10,2013-09-21 06:00:00,
2013-09-20 23:15:00,79.9,56.0,29.71,SE,131,6.0,9.0,44,0.00,,,0.00,weatherlink.com 1.10,2013-09-21 06:15:00,
2013-09-20 23:30:00,80.5,55.0,29.71,SSE,154,7.0,13.0,41,0.00,,,0.00,weatherlink.com 1.10,2013-09-21 06:30:00,
2013-09-20 23:45:00,80.3,55.0,29.71,SSE,162,5.0,11.0,42,0.00,,,0.00,weatherlink.com 1.10,2013-09-21 06:45:00,